sensor_id;sensor_type;location;lat;lon;timestamp;pressure;altitude;pressure_sealevel;temperature;humidity
40171;BME280;37650;52.790;18.268;2022-11-18T00:02:58;99655.70;;;-2.73;100.00
40171;BME280;37650;52.790;18.268;2022-11-18T00:06:21;99658.77;;;-2.76;100.00
40171;BME280;37650;52.790;18.268;2022-11-18T00:09:42;99653.79;;;-2.77;100.00
40171;BME280;37650;52.790;18.268;2022-11-18T00:13:03;99656.71;;;-2.78;100.00
40171;BME280;37650;52.790;18.268;2022-11-18T00:17:05;99656.02;;;-2.77;100.00
40171;BME280;37650;52.790;18.268;2022-11-18T00:20:25;99659.79;;;-2.78;100.00
40171;BME280;37650;52.790;18.268;2022-11-18T00:23:47;99663.02;;;-2.84;100.00
40171;BME280;37650;52.790;18.268;2022-11-18T00:27:09;99670.03;;;-2.90;100.00
40171;BME280;37650;52.790;18.268;2022-11-18T00:30:30;99673.09;;;-2.96;100.00
40171;BME280;37650;52.790;18.268;2022-11-18T00:33:51;99675.63;;;-3.02;100.00
40171;BME280;37650;52.790;18.268;2022-11-18T00:37:12;99678.38;;;-3.01;100.00
40171;BME280;37650;52.790;18.268;2022-11-18T00:40:32;99679.09;;;-2.95;100.00
40171;BME280;37650;52.790;18.268;2022-11-18T00:43:54;99679.48;;;-2.88;100.00
40171;BME280;37650;52.790;18.268;2022-11-18T00:47:15;99680.02;;;-2.83;100.00
40171;BME280;37650;52.790;18.268;2022-11-18T00:50:36;99683.66;;;-2.76;100.00
40171;BME280;37650;52.790;18.268;2022-11-18T00:53:57;99681.45;;;-2.70;100.00
40171;BME280;37650;52.790;18.268;2022-11-18T00:57:18;99685.09;;;-2.68;100.00
40171;BME280;37650;52.790;18.268;2022-11-18T01:00:44;99686.46;;;-2.65;100.00
40171;BME280;37650;52.790;18.268;2022-11-18T01:04:05;99690.11;;;-2.58;100.00
40171;BME280;37650;52.790;18.268;2022-11-18T01:07:26;99692.57;;;-2.48;100.00
40171;BME280;37650;52.790;18.268;2022-11-18T01:10:48;99688.80;;;-2.47;100.00
40171;BME280;37650;52.790;18.268;2022-11-18T01:14:09;99682.92;;;-2.52;100.00
40171;BME280;37650;52.790;18.268;2022-11-18T01:17:31;99673.98;;;-2.55;100.00
40171;BME280;37650;52.790;18.268;2022-11-18T01:20:52;99665.39;;;-2.55;100.00
40171;BME280;37650;52.790;18.268;2022-11-18T01:24:14;99667.77;;;-2.62;100.00
40171;BME280;37650;52.790;18.268;2022-11-18T01:27:35;99672.73;;;-2.65;100.00
40171;BME280;37650;52.790;18.268;2022-11-18T01:31:06;99672.58;;;-2.63;100.00
40171;BME280;37650;52.790;18.268;2022-11-18T01:34:28;99673.45;;;-2.62;100.00
40171;BME280;37650;52.790;18.268;2022-11-18T01:37:49;99665.36;;;-2.64;100.00
40171;BME280;37650;52.790;18.268;2022-11-18T01:41:10;99660.56;;;-2.62;100.00
40171;BME280;37650;52.790;18.268;2022-11-18T01:48:26;99654.72;;;-2.63;100.00
40171;BME280;37650;52.790;18.268;2022-11-18T01:51:54;99653.86;;;-2.60;100.00
40171;BME280;37650;52.790;18.268;2022-11-18T01:55:23;99655.42;;;-2.58;100.00
40171;BME280;37650;52.790;18.268;2022-11-18T01:58:49;99650.10;;;-2.58;100.00
40171;BME280;37650;52.790;18.268;2022-11-18T02:02:13;99645.98;;;-2.55;100.00
40171;BME280;37650;52.790;18.268;2022-11-18T02:05:35;99652.37;;;-2.49;100.00
40171;BME280;37650;52.790;18.268;2022-11-18T02:08:57;99658.91;;;-2.43;100.00
40171;BME280;37650;52.790;18.268;2022-11-18T02:12:19;99661.66;;;-2.43;100.00
40171;BME280;37650;52.790;18.268;2022-11-18T02:19:49;99648.63;;;-2.42;100.00
40171;BME280;37650;52.790;18.268;2022-11-18T02:23:40;99638.67;;;-2.34;100.00
40171;BME280;37650;52.790;18.268;2022-11-18T02:34:47;99639.87;;;-2.38;100.00
40171;BME280;37650;52.790;18.268;2022-11-18T02:38:20;99639.55;;;-2.31;100.00
40171;BME280;37650;52.790;18.268;2022-11-18T02:41:44;99641.64;;;-2.19;100.00
40171;BME280;37650;52.790;18.268;2022-11-18T02:45:13;99642.67;;;-2.17;100.00
40171;BME280;37650;52.790;18.268;2022-11-18T02:48:39;99646.80;;;-2.18;100.00
40171;BME280;37650;52.790;18.268;2022-11-18T02:52:03;99640.59;;;-2.23;100.00
40171;BME280;37650;52.790;18.268;2022-11-18T02:55:29;99638.89;;;-2.18;100.00
40171;BME280;37650;52.790;18.268;2022-11-18T02:58:51;99639.08;;;-2.10;100.00
40171;BME280;37650;52.790;18.268;2022-11-18T03:02:17;99647.67;;;-2.11;100.00
40171;BME280;37650;52.790;18.268;2022-11-18T03:05:45;99645.63;;;-2.05;100.00
40171;BME280;37650;52.790;18.268;2022-11-18T03:09:17;99647.70;;;-1.95;100.00
40171;BME280;37650;52.790;18.268;2022-11-18T03:13:34;99654.40;;;-1.91;100.00
40171;BME280;37650;52.790;18.268;2022-11-18T03:16:57;99655.96;;;-1.89;100.00
40171;BME280;37650;52.790;18.268;2022-11-18T03:23:53;99660.09;;;-1.89;100.00
40171;BME280;37650;52.790;18.268;2022-11-18T03:27:21;99665.77;;;-1.89;100.00
40171;BME280;37650;52.790;18.268;2022-11-18T03:31:02;99665.92;;;-1.95;100.00
40171;BME280;37650;52.790;18.268;2022-11-18T03:37:53;99663.35;;;-1.94;100.00
40171;BME280;37650;52.790;18.268;2022-11-18T03:41:17;99663.69;;;-1.90;100.00
40171;BME280;37650;52.790;18.268;2022-11-18T03:44:44;99664.20;;;-1.91;100.00
40171;BME280;37650;52.790;18.268;2022-11-18T03:48:11;99662.67;;;-1.89;100.00
40171;BME280;37650;52.790;18.268;2022-11-18T03:51:42;99657.17;;;-1.92;100.00
40171;BME280;37650;52.790;18.268;2022-11-18T03:55:11;99657.33;;;-1.94;100.00
40171;BME280;37650;52.790;18.268;2022-11-18T04:02:29;99660.94;;;-1.94;100.00
40171;BME280;37650;52.790;18.268;2022-11-18T04:05:57;99661.63;;;-1.94;100.00
40171;BME280;37650;52.790;18.268;2022-11-18T04:09:24;99662.83;;;-1.93;100.00
40171;BME280;37650;52.790;18.268;2022-11-18T04:12:53;99665.23;;;-1.91;100.00
40171;BME280;37650;52.790;18.268;2022-11-18T04:16:16;99669.02;;;-1.90;100.00
40171;BME280;37650;52.790;18.268;2022-11-18T04:19:38;99667.31;;;-1.88;100.00
40171;BME280;37650;52.790;18.268;2022-11-18T04:23:00;99668.86;;;-1.88;100.00
40171;BME280;37650;52.790;18.268;2022-11-18T04:26:21;99669.91;;;-1.83;100.00
40171;BME280;37650;52.790;18.268;2022-11-18T04:29:42;99669.73;;;-1.83;100.00
40171;BME280;37650;52.790;18.268;2022-11-18T04:33:03;99665.75;;;-1.89;100.00
40171;BME280;37650;52.790;18.268;2022-11-18T04:36:24;99663.17;;;-1.91;100.00
40171;BME280;37650;52.790;18.268;2022-11-18T04:39:45;99663.86;;;-1.92;100.00
40171;BME280;37650;52.790;18.268;2022-11-18T04:43:07;99662.83;;;-1.91;100.00
40171;BME280;37650;52.790;18.268;2022-11-18T04:46:28;99655.45;;;-1.90;100.00
40171;BME280;37650;52.790;18.268;2022-11-18T04:49:49;99657.50;;;-1.91;100.00
40171;BME280;37650;52.790;18.268;2022-11-18T04:53:10;99658.19;;;-1.94;100.00
40171;BME280;37650;52.790;18.268;2022-11-18T04:56:32;99661.63;;;-1.98;100.00
40171;BME280;37650;52.790;18.268;2022-11-18T04:59:53;99656.80;;;-2.01;100.00
40171;BME280;37650;52.790;18.268;2022-11-18T05:03:14;99657.84;;;-2.00;100.00
40171;BME280;37650;52.790;18.268;2022-11-18T05:06:35;99655.94;;;-2.04;100.00
40171;BME280;37650;52.790;18.268;2022-11-18T05:09:56;99655.59;;;-2.08;100.00
40171;BME280;37650;52.790;18.268;2022-11-18T05:13:17;99660.55;;;-2.14;100.00
40171;BME280;37650;52.790;18.268;2022-11-18T05:16:37;99659.01;;;-2.16;100.00
40171;BME280;37650;52.790;18.268;2022-11-18T05:19:58;99664.84;;;-2.19;100.00
40171;BME280;37650;52.790;18.268;2022-11-18T05:23:19;99664.14;;;-2.22;100.00
40171;BME280;37650;52.790;18.268;2022-11-18T05:26:40;99663.80;;;-2.20;100.00
40171;BME280;37650;52.790;18.268;2022-11-18T05:30:01;99665.02;;;-2.17;100.00
40171;BME280;37650;52.790;18.268;2022-11-18T05:33:23;99667.77;;;-2.16;100.00
40171;BME280;37650;52.790;18.268;2022-11-18T05:36:44;99669.83;;;-2.19;100.00
40171;BME280;37650;52.790;18.268;2022-11-18T05:40:06;99670.33;;;-2.21;100.00
40171;BME280;37650;52.790;18.268;2022-11-18T05:43:28;99678.40;;;-2.23;100.00
40171;BME280;37650;52.790;18.268;2022-11-18T05:46:51;99677.89;;;-2.25;100.00
40171;BME280;37650;52.790;18.268;2022-11-18T05:50:12;99682.69;;;-2.24;100.00
40171;BME280;37650;52.790;18.268;2022-11-18T05:53:34;99682.02;;;-2.20;100.00
40171;BME280;37650;52.790;18.268;2022-11-18T05:56:55;99685.29;;;-2.17;100.00
40171;BME280;37650;52.790;18.268;2022-11-18T06:00:17;99678.43;;;-2.15;100.00
40171;BME280;37650;52.790;18.268;2022-11-18T06:03:39;99685.30;;;-2.12;100.00
40171;BME280;37650;52.790;18.268;2022-11-18T06:07:21;99684.80;;;-2.07;100.00
40171;BME280;37650;52.790;18.268;2022-11-18T06:10:44;99685.48;;;-2.06;100.00
40171;BME280;37650;52.790;18.268;2022-11-18T06:14:55;99688.41;;;-2.07;100.00
40171;BME280;37650;52.790;18.268;2022-11-18T06:17:57;99691.33;;;-2.02;100.00
40171;BME280;37650;52.790;18.268;2022-11-18T06:21:19;99698.58;;;-1.96;100.00
40171;BME280;37650;52.790;18.268;2022-11-18T06:24:41;99703.40;;;-1.95;100.00
40171;BME280;37650;52.790;18.268;2022-11-18T06:28:03;99705.11;;;-1.95;100.00
40171;BME280;37650;52.790;18.268;2022-11-18T06:31:24;99706.66;;;-1.92;100.00
40171;BME280;37650;52.790;18.268;2022-11-18T06:34:46;99706.33;;;-1.90;100.00
40171;BME280;37650;52.790;18.268;2022-11-18T06:38:08;99708.91;;;-1.89;100.00
40171;BME280;37650;52.790;18.268;2022-11-18T06:41:30;99708.23;;;-1.89;100.00
40171;BME280;37650;52.790;18.268;2022-11-18T06:49:52;99713.58;;;-1.83;100.00
40171;BME280;37650;52.790;18.268;2022-11-18T06:53:13;99719.41;;;-1.79;100.00
40171;BME280;37650;52.790;18.268;2022-11-18T06:56:37;99721.84;;;-1.73;100.00
40171;BME280;37650;52.790;18.268;2022-11-18T06:59:59;99724.41;;;-1.74;100.00
40171;BME280;37650;52.790;18.268;2022-11-18T07:03:20;99724.09;;;-1.72;100.00
40171;BME280;37650;52.790;18.268;2022-11-18T07:06:41;99726.67;;;-1.64;100.00
40171;BME280;37650;52.790;18.268;2022-11-18T07:10:03;99722.05;;;-1.54;100.00
40171;BME280;37650;52.790;18.268;2022-11-18T07:13:24;99722.90;;;-1.48;100.00
40171;BME280;37650;52.790;18.268;2022-11-18T07:16:46;99725.67;;;-1.42;100.00
40171;BME280;37650;52.790;18.268;2022-11-18T07:20:08;99730.65;;;-1.37;100.00
40171;BME280;37650;52.790;18.268;2022-11-18T07:23:30;99730.50;;;-1.35;100.00
40171;BME280;37650;52.790;18.268;2022-11-18T07:26:52;99729.45;;;-1.33;100.00
40171;BME280;37650;52.790;18.268;2022-11-18T07:30:14;99731.86;;;-1.27;100.00
40171;BME280;37650;52.790;18.268;2022-11-18T07:33:36;99735.15;;;-1.24;100.00
40171;BME280;37650;52.790;18.268;2022-11-18T07:36:58;99728.25;;;-1.20;100.00
40171;BME280;37650;52.790;18.268;2022-11-18T07:40:20;99726.00;;;-1.17;100.00
40171;BME280;37650;52.790;18.268;2022-11-18T07:43:43;99726.70;;;-1.07;100.00
40171;BME280;37650;52.790;18.268;2022-11-18T07:47:04;99732.54;;;-0.91;100.00
40171;BME280;37650;52.790;18.268;2022-11-18T07:50:26;99738.38;;;-0.82;100.00
40171;BME280;37650;52.790;18.268;2022-11-18T07:53:47;99744.75;;;-0.78;100.00
40171;BME280;37650;52.790;18.268;2022-11-18T07:57:08;99749.57;;;-0.81;100.00
40171;BME280;37650;52.790;18.268;2022-11-18T08:00:30;99749.40;;;-0.79;100.00
40171;BME280;37650;52.790;18.268;2022-11-18T08:03:51;99748.02;;;-0.74;100.00
40171;BME280;37650;52.790;18.268;2022-11-18T08:07:13;99748.00;;;-0.68;100.00
40171;BME280;37650;52.790;18.268;2022-11-18T08:10:35;99742.81;;;-0.57;100.00
40171;BME280;37650;52.790;18.268;2022-11-18T08:13:57;99740.02;;;-0.46;100.00
40171;BME280;37650;52.790;18.268;2022-11-18T08:17:18;99733.59;;;-0.24;100.00
40171;BME280;37650;52.790;18.268;2022-11-18T08:20:39;99732.46;;;-0.04;100.00
40171;BME280;37650;52.790;18.268;2022-11-18T08:24:01;99739.05;;;0.22;100.00
40171;BME280;37650;52.790;18.268;2022-11-18T08:27:23;99740.50;;;0.66;100.00
40171;BME280;37650;52.790;18.268;2022-11-18T08:30:45;99740.35;;;0.85;100.00
40171;BME280;37650;52.790;18.268;2022-11-18T08:34:06;99742.41;;;1.08;100.00
40171;BME280;37650;52.790;18.268;2022-11-18T08:37:27;99741.87;;;1.47;100.00
40171;BME280;37650;52.790;18.268;2022-11-18T08:40:48;99745.63;;;1.51;100.00
40171;BME280;37650;52.790;18.268;2022-11-18T08:44:12;99749.98;;;1.47;99.99
40171;BME280;37650;52.790;18.268;2022-11-18T08:47:34;99749.89;;;1.56;99.95
40171;BME280;37650;52.790;18.268;2022-11-18T08:50:57;99755.17;;;1.62;99.92
40171;BME280;37650;52.790;18.268;2022-11-18T08:54:18;99753.19;;;1.54;99.77
40171;BME280;37650;52.790;18.268;2022-11-18T08:57:39;99756.32;;;1.53;99.51
40171;BME280;37650;52.790;18.268;2022-11-18T09:01:04;99758.21;;;1.53;98.95
40171;BME280;37650;52.790;18.268;2022-11-18T09:04:26;99756.17;;;1.65;99.14
40171;BME280;37650;52.790;18.268;2022-11-18T09:07:47;99757.55;;;1.66;98.87
40171;BME280;37650;52.790;18.268;2022-11-18T09:14:31;99764.16;;;1.62;98.24
40171;BME280;37650;52.790;18.268;2022-11-18T09:17:53;99762.98;;;1.60;98.38
40171;BME280;37650;52.790;18.268;2022-11-18T09:21:14;99759.58;;;1.37;97.73
40171;BME280;37650;52.790;18.268;2022-11-18T09:24:35;99758.15;;;1.25;98.42
40171;BME280;37650;52.790;18.268;2022-11-18T09:27:57;99756.52;;;1.13;98.51
40171;BME280;37650;52.790;18.268;2022-11-18T09:31:18;99760.05;;;1.04;98.80
40171;BME280;37650;52.790;18.268;2022-11-18T09:34:39;99757.63;;;1.05;98.77
40171;BME280;37650;52.790;18.268;2022-11-18T09:38:00;99756.63;;;1.01;98.49
40171;BME280;37650;52.790;18.268;2022-11-18T09:48:24;99750.02;;;1.06;98.58
40171;BME280;37650;52.790;18.268;2022-11-18T09:55:36;99742.08;;;1.41;98.75
40171;BME280;37650;52.790;18.268;2022-11-18T09:58:58;99734.91;;;1.66;98.30
40171;BME280;37650;52.790;18.268;2022-11-18T10:06:19;99731.54;;;2.40;96.06
40171;BME280;37650;52.790;18.268;2022-11-18T10:09:43;99730.37;;;2.61;95.24
40171;BME280;37650;52.790;18.268;2022-11-18T10:17:31;99729.71;;;2.80;93.90
40171;BME280;37650;52.790;18.268;2022-11-18T10:24:26;99736.89;;;3.36;91.15
40171;BME280;37650;52.790;18.268;2022-11-18T10:27:50;99736.73;;;3.17;90.87
40171;BME280;37650;52.790;18.268;2022-11-18T10:31:11;99737.65;;;2.93;90.78
40171;BME280;37650;52.790;18.268;2022-11-18T10:34:34;99737.90;;;2.66;90.77
40171;BME280;37650;52.790;18.268;2022-11-18T10:38:37;99740.13;;;2.56;90.73
40171;BME280;37650;52.790;18.268;2022-11-18T10:41:53;99737.94;;;2.85;90.95
40171;BME280;37650;52.790;18.268;2022-11-18T10:48:43;99745.02;;;3.18;89.19
40171;BME280;37650;52.790;18.268;2022-11-18T10:52:09;99749.84;;;2.89;88.79
40171;BME280;37650;52.790;18.268;2022-11-18T10:55:32;99746.44;;;2.62;88.08
40171;BME280;37650;52.790;18.268;2022-11-18T10:58:53;99743.97;;;2.42;87.65
40171;BME280;37650;52.790;18.268;2022-11-18T11:02:42;99737.38;;;2.30;86.79
40171;BME280;37650;52.790;18.268;2022-11-18T11:06:36;99742.63;;;3.23;85.11
40171;BME280;37650;52.790;18.268;2022-11-18T11:10:20;99740.77;;;5.50;80.87
40171;BME280;37650;52.790;18.268;2022-11-18T11:13:43;99735.17;;;5.77;79.59
40171;BME280;37650;52.790;18.268;2022-11-18T11:17:07;99741.58;;;4.63;80.81
40171;BME280;37650;52.790;18.268;2022-11-18T11:20:29;99748.64;;;3.93;82.01
40171;BME280;37650;52.790;18.268;2022-11-18T11:23:50;99751.21;;;3.50;82.91
40171;BME280;37650;52.790;18.268;2022-11-18T11:35:18;99747.80;;;2.28;84.27
40171;BME280;37650;52.790;18.268;2022-11-18T11:50:49;99761.11;;;1.41;85.35
40171;BME280;37650;52.790;18.268;2022-11-18T11:58:33;99758.36;;;1.01;85.30
40171;BME280;37650;52.790;18.268;2022-11-18T12:05:35;99758.84;;;1.05;86.13
40171;BME280;37650;52.790;18.268;2022-11-18T12:16:13;99764.90;;;1.23;86.03
40171;BME280;37650;52.790;18.268;2022-11-18T12:19:38;99759.82;;;2.08;84.99
40171;BME280;37650;52.790;18.268;2022-11-18T12:23:20;99758.23;;;2.37;84.19
40171;BME280;37650;52.790;18.268;2022-11-18T12:26:43;99766.95;;;2.06;84.28
40171;BME280;37650;52.790;18.268;2022-11-18T12:30:17;99773.48;;;1.80;84.73
40171;BME280;37650;52.790;18.268;2022-11-18T12:33:43;99774.98;;;1.54;84.43
40171;BME280;37650;52.790;18.268;2022-11-18T12:40:45;99782.96;;;1.12;84.60
40171;BME280;37650;52.790;18.268;2022-11-18T12:44:09;99784.08;;;1.03;85.17
40171;BME280;37650;52.790;18.268;2022-11-18T12:54:48;99788.71;;;0.84;85.29
40171;BME280;37650;52.790;18.268;2022-11-18T12:58:22;99789.78;;;0.78;84.60
40171;BME280;37650;52.790;18.268;2022-11-18T13:01:43;99793.08;;;0.76;84.98
40171;BME280;37650;52.790;18.268;2022-11-18T13:05:08;99786.16;;;0.78;85.10
40171;BME280;37650;52.790;18.268;2022-11-18T13:08:30;99782.97;;;0.90;85.67
40171;BME280;37650;52.790;18.268;2022-11-18T13:12:00;99782.04;;;0.97;84.95
40171;BME280;37650;52.790;18.268;2022-11-18T13:15:23;99785.50;;;0.97;84.54
40171;BME280;37650;52.790;18.268;2022-11-18T13:19:03;99786.86;;;1.01;84.09
40171;BME280;37650;52.790;18.268;2022-11-18T13:22:25;99790.94;;;1.07;84.20
40171;BME280;37650;52.790;18.268;2022-11-18T13:29:55;99792.27;;;0.92;83.40
40171;BME280;37650;52.790;18.268;2022-11-18T13:33:18;99793.52;;;0.87;83.60
40171;BME280;37650;52.790;18.268;2022-11-18T13:36:44;99796.90;;;0.74;83.21
40171;BME280;37650;52.790;18.268;2022-11-18T13:40:17;99798.67;;;0.67;83.76
40171;BME280;37650;52.790;18.268;2022-11-18T13:43:39;99803.34;;;0.64;84.20
40171;BME280;37650;52.790;18.268;2022-11-18T13:50:36;99805.75;;;0.35;84.46
40171;BME280;37650;52.790;18.268;2022-11-18T13:53:58;99810.05;;;0.37;84.94
40171;BME280;37650;52.790;18.268;2022-11-18T13:57:22;99812.95;;;0.44;85.09
40171;BME280;37650;52.790;18.268;2022-11-18T14:00:56;99817.42;;;0.49;84.82
40171;BME280;37650;52.790;18.268;2022-11-18T14:04:48;99818.65;;;0.45;85.34
40171;BME280;37650;52.790;18.268;2022-11-18T14:12:02;99824.08;;;0.27;85.82
40171;BME280;37650;52.790;18.268;2022-11-18T14:18:50;99822.92;;;0.13;86.12
40171;BME280;37650;52.790;18.268;2022-11-18T14:22:18;99821.38;;;0.10;86.25
40171;BME280;37650;52.790;18.268;2022-11-18T14:25:42;99826.41;;;0.02;85.73
40171;BME280;37650;52.790;18.268;2022-11-18T14:29:20;99829.53;;;-0.03;86.27
40171;BME280;37650;52.790;18.268;2022-11-18T14:36:25;99835.39;;;0.01;86.87
40171;BME280;37650;52.790;18.268;2022-11-18T14:39:54;99838.13;;;0.10;87.31
40171;BME280;37650;52.790;18.268;2022-11-18T14:43:15;99844.65;;;0.14;87.10
40171;BME280;37650;52.790;18.268;2022-11-18T14:46:37;99842.92;;;0.12;87.36
40171;BME280;37650;52.790;18.268;2022-11-18T14:50:00;99847.09;;;0.06;87.52
40171;BME280;37650;52.790;18.268;2022-11-18T14:53:21;99850.91;;;-0.03;87.65
40171;BME280;37650;52.790;18.268;2022-11-18T14:56:43;99855.41;;;-0.12;87.99
40171;BME280;37650;52.790;18.268;2022-11-18T15:00:09;99857.32;;;-0.15;88.37
40171;BME280;37650;52.790;18.268;2022-11-18T15:03:38;99861.64;;;-0.18;89.09
40171;BME280;37650;52.790;18.268;2022-11-18T15:06:59;99866.48;;;-0.24;88.84
40171;BME280;37650;52.790;18.268;2022-11-18T15:10:21;99870.10;;;-0.27;88.63
40171;BME280;37650;52.790;18.268;2022-11-18T15:13:52;99880.09;;;-0.31;88.89
40171;BME280;37650;52.790;18.268;2022-11-18T15:17:15;99887.51;;;-0.30;89.68
40171;BME280;37650;52.790;18.268;2022-11-18T15:20:37;99894.94;;;-0.28;89.53
40171;BME280;37650;52.790;18.268;2022-11-18T15:23:58;99895.79;;;-0.32;89.55
40171;BME280;37650;52.790;18.268;2022-11-18T15:27:20;99897.69;;;-0.34;90.18
40171;BME280;37650;52.790;18.268;2022-11-18T15:30:41;99900.63;;;-0.33;90.27
40171;BME280;37650;52.790;18.268;2022-11-18T15:34:02;99905.61;;;-0.30;90.31
40171;BME280;37650;52.790;18.268;2022-11-18T15:37:24;99911.64;;;-0.26;90.51
40171;BME280;37650;52.790;18.268;2022-11-18T15:40:45;99918.88;;;-0.23;90.59
40171;BME280;37650;52.790;18.268;2022-11-18T15:44:08;99920.25;;;-0.20;90.99
40171;BME280;37650;52.790;18.268;2022-11-18T15:47:30;99922.49;;;-0.21;90.74
40171;BME280;37650;52.790;18.268;2022-11-18T15:50:52;99925.25;;;-0.31;90.82
40171;BME280;37650;52.790;18.268;2022-11-18T15:54:14;99929.91;;;-0.42;91.34
40171;BME280;37650;52.790;18.268;2022-11-18T15:57:35;99933.01;;;-0.58;92.16
40171;BME280;37650;52.790;18.268;2022-11-18T16:00:56;99932.30;;;-0.72;92.94
40171;BME280;37650;52.790;18.268;2022-11-18T16:04:18;99930.91;;;-0.78;93.81
40171;BME280;37650;52.790;18.268;2022-11-18T16:07:40;99934.02;;;-0.78;93.78
40171;BME280;37650;52.790;18.268;2022-11-18T16:11:02;99933.48;;;-0.83;94.21
40171;BME280;37650;52.790;18.268;2022-11-18T16:14:43;99931.77;;;-0.81;95.67
40171;BME280;37650;52.790;18.268;2022-11-18T16:18:24;99934.70;;;-0.81;95.54
40171;BME280;37650;52.790;18.268;2022-11-18T16:21:47;99932.29;;;-0.85;95.69
40171;BME280;37650;52.790;18.268;2022-11-18T16:25:09;99932.63;;;-0.85;96.27
40171;BME280;37650;52.790;18.268;2022-11-18T16:28:31;99933.15;;;-0.85;96.08
40171;BME280;37650;52.790;18.268;2022-11-18T16:31:52;99936.75;;;-0.85;96.13
40171;BME280;37650;52.790;18.268;2022-11-18T16:35:14;99938.15;;;-0.81;96.09
40171;BME280;37650;52.790;18.268;2022-11-18T16:38:35;99941.08;;;-0.78;96.03
40171;BME280;37650;52.790;18.268;2022-11-18T16:42:00;99939.52;;;-0.81;95.36
40171;BME280;37650;52.790;18.268;2022-11-18T16:45:21;99946.39;;;-0.86;94.37
40171;BME280;37650;52.790;18.268;2022-11-18T16:48:42;99949.84;;;-0.88;94.85
40171;BME280;37650;52.790;18.268;2022-11-18T16:52:06;99947.25;;;-0.89;95.50
40171;BME280;37650;52.790;18.268;2022-11-18T16:55:28;99946.73;;;-0.88;95.26
40171;BME280;37650;52.790;18.268;2022-11-18T16:58:49;99951.58;;;-0.82;95.88
40171;BME280;37650;52.790;18.268;2022-11-18T17:02:12;99954.67;;;-0.78;96.16
40171;BME280;37650;52.790;18.268;2022-11-18T17:05:35;99961.06;;;-0.74;95.90
40171;BME280;37650;52.790;18.268;2022-11-18T17:08:57;99964.18;;;-0.71;96.36
40171;BME280;37650;52.790;18.268;2022-11-18T17:12:19;99967.27;;;-0.72;95.76
40171;BME280;37650;52.790;18.268;2022-11-18T17:15:40;99967.97;;;-0.71;96.16
40171;BME280;37650;52.790;18.268;2022-11-18T17:19:01;99970.02;;;-0.70;96.10
40171;BME280;37650;52.790;18.268;2022-11-18T17:22:24;99972.08;;;-0.77;95.46
40171;BME280;37650;52.790;18.268;2022-11-18T17:25:45;99975.84;;;-0.84;95.08
40171;BME280;37650;52.790;18.268;2022-11-18T17:29:06;99979.46;;;-0.88;94.75
40171;BME280;37650;52.790;18.268;2022-11-18T17:32:28;99982.55;;;-0.90;94.20
40171;BME280;37650;52.790;18.268;2022-11-18T17:36:05;99986.66;;;-0.99;93.90
40171;BME280;37650;52.790;18.268;2022-11-18T17:39:29;99990.41;;;-1.08;93.16
40171;BME280;37650;52.790;18.268;2022-11-18T17:42:51;99995.39;;;-1.13;92.80
40171;BME280;37650;52.790;18.268;2022-11-18T17:46:13;99996.05;;;-1.16;92.38
40171;BME280;37650;52.790;18.268;2022-11-18T17:49:35;99997.77;;;-1.17;92.33
40171;BME280;37650;52.790;18.268;2022-11-18T17:52:57;99997.77;;;-1.17;92.13
40171;BME280;37650;52.790;18.268;2022-11-18T17:56:19;99996.59;;;-1.14;92.00
40171;BME280;37650;52.790;18.268;2022-11-18T17:59:41;99995.56;;;-1.11;91.47
40171;BME280;37650;52.790;18.268;2022-11-18T18:03:03;99997.99;;;-1.07;91.50
40171;BME280;37650;52.790;18.268;2022-11-18T18:06:25;99998.85;;;-1.06;91.76
40171;BME280;37650;52.790;18.268;2022-11-18T18:09:48;100004.36;;;-1.07;91.67
40171;BME280;37650;52.790;18.268;2022-11-18T18:13:10;100003.84;;;-1.09;91.61
40171;BME280;37650;52.790;18.268;2022-11-18T18:16:50;100000.89;;;-1.11;91.49
40171;BME280;37650;52.790;18.268;2022-11-18T18:20:13;100003.33;;;-1.08;91.79
40171;BME280;37650;52.790;18.268;2022-11-18T18:23:34;100003.33;;;-1.07;92.11
40171;BME280;37650;52.790;18.268;2022-11-18T18:26:56;100006.95;;;-1.07;91.84
40171;BME280;37650;52.790;18.268;2022-11-18T18:30:18;100007.46;;;-1.05;92.42
40171;BME280;37650;52.790;18.268;2022-11-18T18:33:39;100012.14;;;-0.99;92.63
40171;BME280;37650;52.790;18.268;2022-11-18T18:37:01;100016.10;;;-0.96;92.76
40171;BME280;37650;52.790;18.268;2022-11-18T18:40:23;100019.20;;;-0.97;92.70
40171;BME280;37650;52.790;18.268;2022-11-18T18:43:46;100023.86;;;-0.98;92.89
40171;BME280;37650;52.790;18.268;2022-11-18T18:47:08;100029.17;;;-1.00;92.99
40171;BME280;37650;52.790;18.268;2022-11-18T18:50:31;100033.30;;;-1.04;92.82
40171;BME280;37650;52.790;18.268;2022-11-18T18:53:54;100041.73;;;-1.04;93.05
40171;BME280;37650;52.790;18.268;2022-11-18T18:57:20;100049.30;;;-1.05;92.65
40171;BME280;37650;52.790;18.268;2022-11-18T19:00:42;100046.89;;;-1.06;92.66
40171;BME280;37650;52.790;18.268;2022-11-18T19:04:05;100049.27;;;-1.11;92.85
40171;BME280;37650;52.790;18.268;2022-11-18T19:07:29;100054.23;;;-1.15;92.53
40171;BME280;37650;52.790;18.268;2022-11-18T19:10:51;100059.18;;;-1.25;92.71
40171;BME280;37650;52.790;18.268;2022-11-18T19:14:16;100058.30;;;-1.32;93.18
40171;BME280;37650;52.790;18.268;2022-11-18T19:17:40;100061.86;;;-1.39;92.74
40171;BME280;37650;52.790;18.268;2022-11-18T19:21:02;100062.81;;;-1.51;93.32
40171;BME280;37650;52.790;18.268;2022-11-18T19:24:24;100061.06;;;-1.54;93.27
40171;BME280;37650;52.790;18.268;2022-11-18T19:27:46;100060.89;;;-1.57;94.14
40171;BME280;37650;52.790;18.268;2022-11-18T19:31:09;100061.93;;;-1.56;94.96
40171;BME280;37650;52.790;18.268;2022-11-18T19:34:31;100065.54;;;-1.54;95.10
40171;BME280;37650;52.790;18.268;2022-11-18T19:37:53;100065.70;;;-1.56;94.96
40171;BME280;37650;52.790;18.268;2022-11-18T19:41:14;100070.52;;;-1.59;94.70
40171;BME280;37650;52.790;18.268;2022-11-18T19:44:37;100073.23;;;-1.63;94.18
40171;BME280;37650;52.790;18.268;2022-11-18T19:48:00;100081.23;;;-1.72;93.83
40171;BME280;37650;52.790;18.268;2022-11-18T19:51:24;100089.73;;;-1.85;93.36